Melody — 3FBS7 — position and weather

sailwx.info

Track history (hours):
 
Tides and Currents Weather Stations Pressure Air Temp Water Temp Dewpoint Dewpoint Depression Visibility Wind Speed Wind Dir Waves Ship Positions

Melody

Operator: Mediterranean Shipping Company

Last reported at 2017-Jun-18 02:23 UTC. Time now 2017-Jun-23 18:51 UTC.
Position N 19°27' W 095°24'.

Length 225 m; draft 8.2 m.

Type: Tanker. MMSI: 371669000.

Date/timePositionNaut miles runAvg speedWind from/ knotsBaromVisibWave heightAir tempDewpointWater temp
2017-Jun-18 02:23N 19°27' W 095°24'1212.3
2017-Jun-18 01:26N 19°35' W 095°33'612.3
2017-Jun-18 00:58N 19°39' W 095°37'612.6
2017-Jun-18 00:30N 19°43' W 095°41'712.9
2017-Jun-17 23:59N 19°48' W 095°46'612.5
2017-Jun-17 23:30N 19°52' W 095°51'712.9
2017-Jun-17 22:59N 19°57' W 095°56'613.1
2017-Jun-17 22:30N 20°01' W 096°01'613.0
2017-Jun-17 22:00N 20°06' W 096°06'713.1
2017-Jun-17 21:29N 20°10' W 096°11'1712.8
2017-Jun-17 20:12N 20°22' W 096°23'  
Track history (hours):
 
Tides and Currents Weather Stations Pressure Air Temp Water Temp Dewpoint Dewpoint Depression Visibility Wind Speed Wind Dir Waves Ship Positions

Melody

Operator: Mediterranean Shipping Company

Last reported at 2017-Jun-18 02:23 UTC. Time now 2017-Jun-23 18:51 UTC.
Position N 19°27' W 095°24'.

Length 225 m; draft 8.2 m.

Type: Tanker. MMSI: 371669000.

Date/timePositionNaut miles runAvg speedWind from/ knotsBaromVisibWave heightAir tempDewpointWater temp
2017-Jun-18 02:23N 19°27' W 095°24'1212.3
2017-Jun-18 01:26N 19°35' W 095°33'612.3
2017-Jun-18 00:58N 19°39' W 095°37'612.6
2017-Jun-18 00:30N 19°43' W 095°41'712.9
2017-Jun-17 23:59N 19°48' W 095°46'612.5
2017-Jun-17 23:30N 19°52' W 095°51'712.9
2017-Jun-17 22:59N 19°57' W 095°56'613.1
2017-Jun-17 22:30N 20°01' W 096°01'613.0
2017-Jun-17 22:00N 20°06' W 096°06'713.1
2017-Jun-17 21:29N 20°10' W 096°11'1712.8
2017-Jun-17 20:12N 20°22' W 096°23'  

Dump ship's entire track history